Time;durP1;ratioP1;P1;durP2;ratioP2;P2;SDS_P1;SDS_P2;PMS_P1;PMS_P2;Temp;Humidity;BMP_temperature;BMP_pressure;BME280_temperature;BME280_humidity;BME280_pressure;Samples;Min_cycle;Max_cycle;Signal;HPM_P1;HPM_P2
2021/08/06 00:00:11;;;;;;;;;;;;;;;15.53;94.76;95274.53;1041207;28;19910;-48
2021/08/06 00:00:42;;;;;;;;;;;;;;;15.54;94.42;95271.66;1040635;28;19913;-49
2021/08/06 00:01:13;;;;;;;;;;;;;;;15.59;93.98;95276.22;1041115;28;19932;-51
2021/08/06 00:01:44;;;;;;;;;;;;;;;15.58;94.21;95278.06;1041058;28;19913;-48
2021/08/06 00:02:15;;;;;;;;;;;;;;;15.58;94.49;95271.97;1036631;28;19913;-49
2021/08/06 00:02:45;;;;;;;;;;;;;;;15.57;94.37;95271.16;1036702;28;19956;-48
2021/08/06 00:03:16;;;;;;;;;;;;;;;15.57;94.13;95268.50;1036714;28;19909;-49
2021/08/06 00:03:46;;;;;;;;;;;;;;;15.59;93.75;95268.25;1036747;28;20338;-50
2021/08/06 00:04:16;;;;;;;;;;;;;;;15.58;94.26;95275.41;1040540;28;19913;-48
2021/08/06 00:04:46;;;;;;;;;;;;;;;15.52;94.44;95268.44;1041085;28;19920;-48
2021/08/06 00:05:17;;;;;;;;;;;;;;;15.50;94.93;95267.91;1040979;28;20406;-51
2021/08/06 00:05:47;;;;;;;;;;;;;;;15.52;94.76;95271.09;1041026;28;19967;-52
2021/08/06 00:06:18;;;;;;;;;;;;;;;15.53;95.21;95278.03;1040944;28;19953;-49
2021/08/06 00:06:48;;;;;;;;;;;;;;;15.55;94.76;95278.56;1041131;28;19913;-47
2021/08/06 00:07:18;;;;;;;;;;;;;;;15.53;94.87;95272.72;1040992;28;20267;-50
2021/08/06 00:07:48;;;;;;;;;;;;;;;15.52;94.82;95276.41;1040894;28;19952;-49
2021/08/06 00:08:19;;;;;;;;;;;;;;;15.52;94.81;95273.75;1040971;28;19934;-48
2021/08/06 00:08:49;;;;;;;;;;;;;;;15.50;94.54;95272.38;1041033;28;19920;-52
2021/08/06 00:09:19;;;;;;;;;;;;;;;15.53;95.08;95275.38;1040665;28;19940;-49
2021/08/06 00:09:49;;;;;;;;;;;;;;;15.55;94.67;95273.25;1040994;28;20328;-50
2021/08/06 00:10:20;;;;;;;;;;;;;;;15.56;94.43;95272.22;1041000;28;19920;-52
2021/08/06 00:10:50;;;;;;;;;;;;;;;15.57;94.28;95271.16;1041121;28;19945;-49
2021/08/06 00:11:24;;;;;;;;;;;;;;;15.58;93.97;95274.63;1041093;28;20385;-50
2021/08/06 00:11:57;;;;;;;;;;;;;;;15.56;94.19;95266.09;1040976;28;19913;-49
2021/08/06 00:12:28;;;;;;;;;;;;;;;15.48;94.46;95258.56;1040990;28;19910;-51
2021/08/06 00:12:58;;;;;;;;;;;;;;;15.51;94.90;95268.69;1040971;28;19913;-48
2021/08/06 00:13:28;;;;;;;;;;;;;;;15.50;95.03;95270.56;1040906;28;19913;-52
2021/08/06 00:13:59;;;;;;;;;;;;;;;15.52;94.68;95275.63;1040908;28;19955;-49
2021/08/06 00:14:29;;;;;;;;;;;;;;;15.51;94.92;95266.03;1040854;28;19952;-52
2021/08/06 00:15:00;;;;;;;;;;;;;;;15.52;94.95;95271.09;1040914;28;19996;-51
2021/08/06 00:15:30;;;;;;;;;;;;;;;15.52;94.95;95263.13;1041088;28;19929;-48
2021/08/06 00:16:00;;;;;;;;;;;;;;;15.53;94.15;95264.75;1040992;28;20307;-49
2021/08/06 00:16:30;;;;;;;;;;;;;;;15.55;94.48;95264.50;1041015;28;19909;-49
2021/08/06 00:17:01;;;;;;;;;;;;;;;15.53;94.62;95264.75;1041089;28;20001;-48
2021/08/06 00:17:31;;;;;;;;;;;;;;;15.55;94.10;95265.31;1040708;28;19906;-48
2021/08/06 00:18:01;;;;;;;;;;;;;;;15.53;94.55;95259.44;1040448;28;19914;-52
2021/08/06 00:18:32;;;;;;;;;;;;;;;15.53;94.51;95262.09;1040730;28;19916;-50
2021/08/06 00:19:02;;;;;;;;;;;;;;;15.56;94.03;95264.25;1040649;28;19980;-48
2021/08/06 00:19:32;;;;;;;;;;;;;;;15.58;93.58;95266.66;1041070;28;19907;-49
2021/08/06 00:20:05;;;;;;;;;;;;;;;15.51;94.22;95263.38;1040714;28;19905;-52
2021/08/06 00:20:35;;;;;;;;;;;;;;;15.54;94.00;95261.03;1041045;28;19902;-50
2021/08/06 00:21:06;;;;;;;;;;;;;;;15.55;94.19;95265.31;1041052;28;19905;-49
2021/08/06 00:21:36;;;;;;;;;;;;;;;15.53;93.88;95262.09;1040917;28;20238;-52
2021/08/06 00:22:06;;;;;;;;;;;;;;;15.56;94.13;95264.25;1040932;28;19936;-51
2021/08/06 00:22:37;;;;;;;;;;;;;;;15.54;94.22;95268.19;1041077;28;19908;-51
2021/08/06 00:23:07;;;;;;;;;;;;;;;15.52;94.26;95259.69;1040982;28;19906;-52
2021/08/06 00:23:37;;;;;;;;;;;;;;;15.52;94.24;95257.84;1041101;28;19901;-49
2021/08/06 00:24:08;;;;;;;;;;;;;;;15.50;94.91;95259.94;1040969;28;19940;-48
2021/08/06 00:24:38;;;;;;;;;;;;;;;15.52;94.69;95262.34;1040834;28;19913;-50
2021/08/06 00:25:08;;;;;;;;;;;;;;;15.54;94.60;95257.59;1041019;28;19952;-51
2021/08/06 00:25:39;;;;;;;;;;;;;;;15.55;94.42;95256.53;1041075;28;20342;-50
2021/08/06 00:26:09;;;;;;;;;;;;;;;15.54;94.68;95260.25;1040940;28;19913;-50
2021/08/06 00:26:40;;;;;;;;;;;;;;;15.54;94.36;95260.25;1041105;28;19908;-51
2021/08/06 00:27:10;;;;;;;;;;;;;;;15.53;94.63;95251.50;1040962;28;19996;-48
2021/08/06 00:27:40;;;;;;;;;;;;;;;15.58;94.65;95256.84;1041109;28;19909;-48
2021/08/06 00:28:11;;;;;;;;;;;;;;;15.58;94.49;95256.06;1041065;28;19909;-47
2021/08/06 00:28:41;;;;;;;;;;;;;;;15.56;94.16;95253.66;1040876;28;19901;-48
2021/08/06 00:29:11;;;;;;;;;;;;;;;15.57;94.35;95252.56;1040704;28;20234;-49
2021/08/06 00:29:42;;;;;;;;;;;;;;;15.56;93.77;95256.31;1040910;28;20331;-48
2021/08/06 00:30:12;;;;;;;;;;;;;;;15.58;93.71;95251.53;1040882;28;19905;-48
2021/08/06 00:30:42;;;;;;;;;;;;;;;15.56;93.57;95253.66;1040958;28;19905;-50
2021/08/06 00:31:12;;;;;;;;;;;;;;;15.57;93.49;95252.56;1040983;28;20420;-48
2021/08/06 00:31:43;;;;;;;;;;;;;;;15.58;93.68;95253.41;1040910;28;19912;-49
2021/08/06 00:32:13;;;;;;;;;;;;;;;15.57;93.74;95252.56;1040891;28;19924;-51
2021/08/06 00:32:43;;;;;;;;;;;;;;;15.62;93.22;95251.84;1041045;28;19931;-52
2021/08/06 00:33:13;;;;;;;;;;;;;;;15.61;93.28;95255.56;1040945;28;19905;-49
2021/08/06 00:33:44;;;;;;;;;;;;;;;15.60;92.20;95253.94;1040918;28;20266;-51
2021/08/06 00:34:14;;;;;;;;;;;;;;;15.62;91.99;95257.13;1040764;28;19912;-48
2021/08/06 00:34:44;;;;;;;;;;;;;;;15.61;92.63;95251.03;1040943;28;19955;-48
2021/08/06 00:35:15;;;;;;;;;;;;;;;15.60;92.63;95254.72;1041245;28;19905;-48
2021/08/06 00:35:45;;;;;;;;;;;;;;;15.61;92.00;95259.00;1041131;28;19902;-48
2021/08/06 00:36:15;;;;;;;;;;;;;;;15.63;92.00;95258.75;1041096;28;19905;-48
2021/08/06 00:36:45;;;;;;;;;;;;;;;15.62;91.99;95251.84;1041286;28;20318;-48
2021/08/06 00:37:16;;;;;;;;;;;;;;;15.62;91.79;95260.63;1041018;28;19931;-48
2021/08/06 00:37:46;;;;;;;;;;;;;;;15.62;91.42;95255.31;1040880;28;19906;-49
2021/08/06 00:38:16;;;;;;;;;;;;;;;15.61;91.54;95255.56;1041064;28;19905;-48
2021/08/06 00:38:47;;;;;;;;;;;;;;;15.58;91.97;95253.41;1040970;28;20339;-48
2021/08/06 00:39:17;;;;;;;;;;;;;;;15.58;92.13;95246.22;1040426;28;19955;-48
2021/08/06 00:39:47;;;;;;;;;;;;;;;15.58;92.02;95251.53;1040890;28;19923;-50
2021/08/06 00:40:17;;;;;;;;;;;;;;;15.58;91.92;95254.19;1040696;28;19915;-47
2021/08/06 00:40:48;;;;;;;;;;;;;;;15.60;92.20;95252.06;1036489;28;19916;-48
2021/08/06 00:41:18;;;;;;;;;;;;;;;15.58;92.24;95251.53;1036609;28;19910;-47
2021/08/06 00:41:48;;;;;;;;;;;;;;;15.58;91.85;95253.41;1036718;28;20374;-49
2021/08/06 00:42:19;;;;;;;;;;;;;;;15.56;91.54;95251.00;1036762;28;19909;-48
2021/08/06 00:42:49;;;;;;;;;;;;;;;15.58;91.89;95256.06;1041171;28;19925;-51
2021/08/06 00:43:20;;;;;;;;;;;;;;;15.57;92.02;95249.13;1041437;28;20373;-48
2021/08/06 00:43:50;;;;;;;;;;;;;;;15.55;92.56;95246.72;1041042;28;19920;-48
2021/08/06 00:44:21;;;;;;;;;;;;;;;15.58;91.95;95251.53;1040962;28;19936;-48
2021/08/06 00:44:51;;;;;;;;;;;;;;;15.53;91.96;95254.16;1040979;28;19909;-47
2021/08/06 00:45:21;;;;;;;;;;;;;;;15.53;92.34;95254.16;1040950;28;19905;-48
2021/08/06 00:45:52;;;;;;;;;;;;;;;15.55;91.66;95249.38;1032402;28;19969;-47
2021/08/06 00:46:22;;;;;;;;;;;;;;;15.57;91.33;95255.22;1028495;28;20389;-48
2021/08/06 00:46:52;;;;;;;;;;;;;;;15.59;90.95;95257.63;1028622;28;19949;-48
2021/08/06 00:47:22;;;;;;;;;;;;;;;15.61;90.78;95256.34;1028411;28;19906;-47
2021/08/06 00:47:53;;;;;;;;;;;;;;;15.61;91.38;95259.00;1032345;28;19910;-49
2021/08/06 00:48:23;;;;;;;;;;;;;;;15.62;90.90;95254.47;1032147;28;20406;-50
2021/08/06 00:48:54;;;;;;;;;;;;;;;15.62;90.94;95250.00;1032341;28;19916;-52
2021/08/06 00:49:24;;;;;;;;;;;;;;;15.63;90.46;95251.59;1032679;28;19906;-48
2021/08/06 00:49:54;;;;;;;;;;;;;;;15.62;90.72;95250.00;1032407;28;19926;-48
2021/08/06 00:50:25;;;;;;;;;;;;;;;15.60;91.07;95254.72;1036450;28;19905;-50
2021/08/06 00:50:55;;;;;;;;;;;;;;;15.62;90.85;95251.84;1036509;28;19909;-50
2021/08/06 00:51:25;;;;;;;;;;;;;;;15.60;90.75;95245.97;1034002;28;19945;-51
2021/08/06 00:51:56;;;;;;;;;;;;;;;15.59;91.10;95247.84;1028421;28;19917;-51
2021/08/06 00:52:26;;;;;;;;;;;;;;;15.58;90.93;95246.22;1028466;28;19920;-50
2021/08/06 00:52:56;;;;;;;;;;;;;;;15.58;91.30;95250.75;1028470;28;19977;-49
2021/08/06 00:53:26;;;;;;;;;;;;;;;15.60;91.19;95249.44;1032500;28;19910;-50
2021/08/06 00:53:57;;;;;;;;;;;;;;;15.59;91.09;95245.19;1032426;28;19955;-49
2021/08/06 00:54:27;;;;;;;;;;;;;;;15.56;91.65;95248.34;1032292;28;20271;-48
2021/08/06 00:54:57;;;;;;;;;;;;;;;15.58;91.63;95250.75;1032412;28;19910;-52
2021/08/06 00:55:28;;;;;;;;;;;;;;;15.53;91.57;95250.66;1032539;28;20367;-51
2021/08/06 00:55:58;;;;;;;;;;;;;;;15.52;91.91;95246.44;1036845;28;19917;-48
2021/08/06 00:56:28;;;;;;;;;;;;;;;15.49;91.92;95247.72;1036813;28;19917;-51
2021/08/06 00:56:58;;;;;;;;;;;;;;;15.44;92.66;95239.69;1036729;28;19917;-48
2021/08/06 00:57:29;;;;;;;;;;;;;;;15.43;92.43;95246.84;1036787;28;19916;-48
2021/08/06 00:57:59;;;;;;;;;;;;;;;15.40;92.39;95246.56;1036727;28;19917;-51
2021/08/06 00:58:29;;;;;;;;;;;;;;;15.39;92.65;95251.03;1036833;28;19960;-49
2021/08/06 00:59:00;;;;;;;;;;;;;;;15.39;93.08;95239.63;1032267;28;19986;-50
2021/08/06 00:59:30;;;;;;;;;;;;;;;15.42;93.36;95244.44;1032531;28;19914;-51
2021/08/06 01:00:00;;;;;;;;;;;;;;;15.39;93.28;95247.59;1032367;28;19926;-51
2021/08/06 01:00:30;;;;;;;;;;;;;;;15.38;93.38;95245.97;1032448;28;20414;-50
2021/08/06 01:01:01;;;;;;;;;;;;;;;15.34;93.34;95248.31;1036772;28;19913;-51
2021/08/06 01:01:31;;;;;;;;;;;;;;;15.37;93.52;95255.00;1036799;28;19913;-48
2021/08/06 01:02:08;;;;;;;;;;;;;;;15.38;92.97;95241.50;1037331;28;19913;-49
2021/08/06 01:02:39;;;;;;;;;;;;;;;15.34;93.29;95255.50;1036716;28;20405;-48
2021/08/06 01:03:12;;;;;;;;;;;;;;;15.36;92.62;95248.88;1036530;28;19972;-49
2021/08/06 01:03:58;;;;;;;;;;;;;;;15.37;92.77;95253.13;1036610;28;20282;-48
2021/08/06 01:04:34;;;;;;;;;;;;;;;15.34;93.03;95250.19;1036487;28;19917;-48
2021/08/06 01:05:04;;;;;;;;;;;;;;;15.31;93.38;95245.38;1036797;28;20055;-49
2021/08/06 01:05:35;;;;;;;;;;;;;;;15.32;93.12;95252.25;1036804;28;19976;-49
2021/08/06 01:06:08;;;;;;;;;;;;;;;15.33;92.88;95248.56;1036930;28;20012;-50
2021/08/06 01:06:47;;;;;;;;;;;;;;;15.34;93.16;95247.53;1032516;28;20304;-48
2021/08/06 01:07:19;;;;;;;;;;;;;;;15.28;93.24;95250.09;1028550;28;20279;-48
2021/08/06 01:07:58;;;;;;;;;;;;;;;15.27;93.18;95248.53;1028321;28;20001;-47
2021/08/06 01:08:35;;;;;;;;;;;;;;;15.26;93.25;95243.47;1031252;28;19909;-49
2021/08/06 01:09:14;;;;;;;;;;;;;;;15.25;93.70;95258.56;1032413;28;20393;-49
2021/08/06 01:09:47;;;;;;;;;;;;;;;15.24;93.58;95259.63;1036182;28;20215;-48
2021/08/06 01:10:17;;;;;;;;;;;;;;;15.23;93.97;95251.91;1032429;28;20346;-48
2021/08/06 01:10:49;;;;;;;;;;;;;;;15.22;93.83;95247.66;1028419;28;19918;-50
2021/08/06 01:11:20;;;;;;;;;;;;;;;15.17;94.45;95248.38;1028635;28;20004;-47
2021/08/06 01:11:52;;;;;;;;;;;;;;;15.13;94.58;95249.91;1028859;28;19918;-48
2021/08/06 01:12:24;;;;;;;;;;;;;;;15.12;95.02;95258.91;1033225;28;19914;-49
2021/08/06 01:12:55;;;;;;;;;;;;;;;15.12;94.61;95253.59;1039082;28;20385;-48
2021/08/06 01:13:26;;;;;;;;;;;;;;;15.11;95.26;95259.97;1040828;28;20362;-48
2021/08/06 01:13:57;;;;;;;;;;;;;;;15.09;95.04;95257.56;1040975;28;19913;-48
2021/08/06 01:14:27;;;;;;;;;;;;;;;15.08;95.56;95263.13;1040497;28;19908;-48
2021/08/06 01:14:58;;;;;;;;;;;;;;;15.05;95.63;95259.09;1040636;28;19914;-48
2021/08/06 01:15:29;;;;;;;;;;;;;;;15.05;95.53;95256.44;1040571;28;19921;-49
2021/08/06 01:16:02;;;;;;;;;;;;;;;15.03;96.30;95255.06;1040608;28;19940;-48
2021/08/06 01:16:33;;;;;;;;;;;;;;;15.02;96.15;95251.63;1036556;28;19906;-48
2021/08/06 01:17:03;;;;;;;;;;;;;;;15.01;96.34;95252.66;1037123;28;19913;-48
2021/08/06 01:17:34;;;;;;;;;;;;;;;15.00;96.50;95250.25;1040825;28;19967;-48
2021/08/06 01:18:05;;;;;;;;;;;;;;;14.98;96.65;95247.06;1040801;28;19947;-47
2021/08/06 01:18:35;;;;;;;;;;;;;;;14.97;96.61;95254.22;1040806;28;19979;-47
2021/08/06 01:19:06;;;;;;;;;;;;;;;14.96;96.90;95249.16;1040679;28;19976;-48
2021/08/06 01:19:54;;;;;;;;;;;;;;;14.93;96.98;95245.16;1040847;28;19912;-48
2021/08/06 01:20:34;;;;;;;;;;;;;;;14.89;97.40;95254.63;1040912;28;19973;-48
2021/08/06 01:21:09;;;;;;;;;;;;;;;14.86;98.15;95250.59;1040885;28;19917;-48
2021/08/06 01:21:43;;;;;;;;;;;;;;;14.86;97.76;95249.81;1040826;28;19917;-48
2021/08/06 01:22:15;;;;;;;;;;;;;;;14.84;98.28;95250.06;1040417;28;19901;-49
2021/08/06 01:22:46;;;;;;;;;;;;;;;14.83;98.37;95251.09;1040587;28;19948;-47
2021/08/06 01:23:19;;;;;;;;;;;;;;;14.80;98.40;95254.22;1040647;28;19906;-48
2021/08/06 01:23:49;;;;;;;;;;;;;;;14.79;98.96;95252.63;1040596;28;19909;-47
2021/08/06 01:24:21;;;;;;;;;;;;;;;14.78;98.41;95258.97;1040440;28;19906;-50
2021/08/06 01:25:00;;;;;;;;;;;;;;;14.77;98.66;95254.72;1040636;28;19909;-48
2021/08/06 01:25:49;;;;;;;;;;;;;;;14.74;99.05;95253.38;1040711;28;20254;-49
2021/08/06 01:26:20;;;;;;;;;;;;;;;14.70;98.55;95257.53;1036549;28;19909;-48
2021/08/06 01:26:50;;;;;;;;;;;;;;;14.69;98.65;95255.91;1037044;28;19909;-48
2021/08/06 01:27:20;;;;;;;;;;;;;;;14.68;99.04;95258.81;1038866;28;19905;-48
2021/08/06 01:27:51;;;;;;;;;;;;;;;14.68;99.10;95256.97;1040590;28;20306;-51
2021/08/06 01:28:22;;;;;;;;;;;;;;;14.66;99.31;95253.75;1040581;28;20006;-47
2021/08/06 01:28:52;;;;;;;;;;;;;;;14.65;99.54;95256.66;1032368;28;20296;-48
2021/08/06 01:29:22;;;;;;;;;;;;;;;14.64;99.46;95255.84;1032478;28;19906;-48
2021/08/06 01:29:53;;;;;;;;;;;;;;;14.62;99.53;95252.66;1032607;28;19977;-48
2021/08/06 01:30:23;;;;;;;;;;;;;;;14.58;99.57;95254.16;1032567;28;19902;-48
2021/08/06 01:30:53;;;;;;;;;;;;;;;14.58;100.00;95257.59;1036414;28;19917;-48
2021/08/06 01:31:27;;;;;;;;;;;;;;;14.57;100.00;95253.34;1032420;28;20298;-48
2021/08/06 01:31:57;;;;;;;;;;;;;;;14.54;100.00;95251.16;1032959;28;19906;-49
2021/08/06 01:32:28;;;;;;;;;;;;;;;14.55;99.79;95252.78;1032421;28;19906;-47
2021/08/06 01:32:59;;;;;;;;;;;;;;;14.54;99.63;95253.00;1033016;28;20259;-48
2021/08/06 01:33:29;;;;;;;;;;;;;;;14.55;99.56;95251.97;1036324;28;19906;-48
2021/08/06 01:33:59;;;;;;;;;;;;;;;14.56;99.62;95254.38;1036284;28;19917;-49
2021/08/06 01:34:30;;;;;;;;;;;;;;;14.54;99.69;95251.16;1040514;28;19986;-50
2021/08/06 01:35:00;;;;;;;;;;;;;;;14.54;99.58;95253.00;1040655;28;20289;-52
2021/08/06 01:35:30;;;;;;;;;;;;;;;14.52;100.00;95255.91;1040614;28;19909;-48
2021/08/06 01:36:00;;;;;;;;;;;;;;;14.52;99.88;95255.91;1040707;28;19909;-52
2021/08/06 01:36:31;;;;;;;;;;;;;;;14.51;99.96;95256.94;1040760;28;19928;-50
2021/08/06 01:37:01;;;;;;;;;;;;;;;14.47;99.83;95247.88;1040710;28;19906;-49
2021/08/06 01:37:31;;;;;;;;;;;;;;;14.49;99.63;95251.09;1040699;28;19955;-49
2021/08/06 01:38:02;;;;;;;;;;;;;;;14.50;99.61;95251.88;1040726;28;19909;-48
2021/08/06 01:38:32;;;;;;;;;;;;;;;14.50;99.66;95246.59;1040741;28;20053;-47
2021/08/06 01:39:02;;;;;;;;;;;;;;;14.50;99.25;95251.88;1040604;28;19905;-50
2021/08/06 01:39:33;;;;;;;;;;;;;;;14.50;98.86;95254.53;1040735;28;19932;-48
2021/08/06 01:40:04;;;;;;;;;;;;;;;14.48;98.99;95252.13;1040694;28;19917;-48
2021/08/06 01:40:45;;;;;;;;;;;;;;;14.49;99.49;95248.44;1040800;28;19913;-51
2021/08/06 01:41:17;;;;;;;;;;;;;;;14.48;99.07;95240.72;1040439;28;20007;-51
2021/08/06 01:42:05;;;;;;;;;;;;;;;14.47;99.67;95245.25;1040566;28;19913;-50
2021/08/06 01:42:42;;;;;;;;;;;;;;;14.47;99.38;95242.59;1040348;28;20369;-52
2021/08/06 01:43:16;;;;;;;;;;;;;;;14.46;99.41;95235.69;1036762;28;19917;-48
2021/08/06 01:43:52;;;;;;;;;;;;;;;14.46;99.61;95243.63;1040387;28;20381;-52
2021/08/06 01:44:28;;;;;;;;;;;;;;;14.42;99.87;95237.19;1040172;28;20012;-52
2021/08/06 01:44:58;;;;;;;;;;;;;;;14.43;99.61;95240.66;1040179;28;19913;-49
2021/08/06 01:45:31;;;;;;;;;;;;;;;14.45;99.77;95244.66;1039113;28;19940;-49
2021/08/06 01:46:13;;;;;;;;;;;;;;;14.41;99.63;95248.84;1040378;28;19947;-52
2021/08/06 01:46:48;;;;;;;;;;;;;;;14.39;99.93;95242.97;1040491;28;19920;-51
2021/08/06 01:47:24;;;;;;;;;;;;;;;14.38;100.00;95239.53;1040280;28;20354;-48
2021/08/06 01:47:55;;;;;;;;;;;;;;;14.39;100.00;95242.97;1037450;28;19917;-52
2021/08/06 01:48:26;;;;;;;;;;;;;;;14.39;99.77;95235.84;1032160;28;20346;-48
2021/08/06 01:48:58;;;;;;;;;;;;;;;14.39;99.56;95235.03;1029219;28;19949;-52
2021/08/06 01:49:33;;;;;;;;;;;;;;;14.36;100.00;95244.28;1032247;28;20365;-50
2021/08/06 01:50:04;;;;;;;;;;;;;;;14.35;100.00;95233.94;1029224;28;19910;-50
2021/08/06 01:50:36;;;;;;;;;;;;;;;14.36;99.79;95238.97;1032371;28;19917;-51
2021/08/06 01:51:07;;;;;;;;;;;;;;;14.35;99.84;95239.22;1029291;28;19918;-49
2021/08/06 01:51:38;;;;;;;;;;;;;;;14.34;99.93;95234.97;1028578;28;19914;-51
2021/08/06 01:52:09;;;;;;;;;;;;;;;14.34;100.00;95234.97;1032261;28;20009;-48
2021/08/06 01:52:59;;;;;;;;;;;;;;;14.32;100.00;95237.06;1032550;28;19984;-49
2021/08/06 01:53:30;;;;;;;;;;;;;;;14.30;100.00;95236.47;1035178;28;19920;-47
2021/08/06 01:54:00;;;;;;;;;;;;;;;14.28;100.00;95235.91;1036369;28;20274;-51
2021/08/06 01:54:31;;;;;;;;;;;;;;;14.27;100.00;95229.00;1032196;28;19969;-47
2021/08/06 01:55:04;;;;;;;;;;;;;;;14.27;100.00;95229.00;1028303;28;19961;-50
2021/08/06 01:55:41;;;;;;;;;;;;;;;14.28;100.00;95233.28;1028095;28;19917;-50
2021/08/06 01:56:12;;;;;;;;;;;;;;;14.28;100.00;95235.91;1032170;28;19910;-49
2021/08/06 01:56:44;;;;;;;;;;;;;;;14.25;100.00;95226.59;1033668;28;19910;-49
2021/08/06 01:57:15;;;;;;;;;;;;;;;14.24;100.00;95227.63;1034623;28;19921;-47
2021/08/06 01:57:45;;;;;;;;;;;;;;;14.22;100.00;95232.38;1036426;28;19948;-51
2021/08/06 01:58:15;;;;;;;;;;;;;;;14.22;100.00;95235.81;1032229;28;19954;-51
2021/08/06 01:58:46;;;;;;;;;;;;;;;14.24;100.00;95229.50;1028386;28;19961;-48
2021/08/06 01:59:17;;;;;;;;;;;;;;;14.22;100.00;95225.22;1028107;28;19922;-51
2021/08/06 01:59:47;;;;;;;;;;;;;;;14.21;100.00;95222.81;1024319;28;19937;-51
2021/08/06 02:00:17;;;;;;;;;;;;;;;14.21;100.00;95228.13;1024323;28;19915;-48
2021/08/06 02:00:48;;;;;;;;;;;;;;;14.19;100.00;95222.28;1028335;28;19910;-50
2021/08/06 02:01:18;;;;;;;;;;;;;;;14.26;100.00;95225.56;1028193;28;19914;-49
2021/08/06 02:01:48;;;;;;;;;;;;;;;14.27;100.00;95221.06;1032775;28;20391;-48
2021/08/06 02:02:18;;;;;;;;;;;;;;;14.24;100.00;95218.91;1036894;28;19924;-51
2021/08/06 02:02:49;;;;;;;;;;;;;;;14.22;100.00;95222.59;1033086;28;19990;-47
2021/08/06 02:03:21;;;;;;;;;;;;;;;14.24;100.00;95225.00;1037120;28;19910;-48
2021/08/06 02:03:51;;;;;;;;;;;;;;;14.23;100.00;95226.06;1037093;28;19917;-50
2021/08/06 02:04:22;;;;;;;;;;;;;;;14.21;100.00;95223.66;1033017;28;19913;-49
2021/08/06 02:04:52;;;;;;;;;;;;;;;14.21;100.00;95217.53;1037016;28;20632;-50
2021/08/06 02:05:22;;;;;;;;;;;;;;;14.18;100.00;95215.34;1037148;28;19925;-50
2021/08/06 02:05:53;;;;;;;;;;;;;;;14.17;100.00;95219.06;1037123;28;20004;-51
2021/08/06 02:06:23;;;;;;;;;;;;;;;14.19;100.00;95220.41;1035456;28;19998;-51
2021/08/06 02:06:53;;;;;;;;;;;;;;;14.20;100.00;95222.03;1037101;28;19920;-49
2021/08/06 02:07:24;;;;;;;;;;;;;;;14.19;100.00;95215.13;1037002;28;19956;-51
2021/08/06 02:07:54;;;;;;;;;;;;;;;14.17;100.00;95213.78;1041516;28;19947;-50
2021/08/06 02:08:24;;;;;;;;;;;;;;;14.17;100.00;95216.41;1041513;28;19913;-49
2021/08/06 02:08:55;;;;;;;;;;;;;;;14.11;100.00;95207.59;1041338;28;19917;-51
2021/08/06 02:09:25;;;;;;;;;;;;;;;14.11;100.00;95212.88;1041384;28;19917;-51
2021/08/06 02:09:55;;;;;;;;;;;;;;;14.10;100.00;95216.56;1041121;28;19920;-50
2021/08/06 02:10:25;;;;;;;;;;;;;;;14.10;100.00;95211.25;1041132;28;19913;-51
2021/08/06 02:10:56;;;;;;;;;;;;;;;14.08;100.00;95216.00;1041125;28;19920;-48
2021/08/06 02:11:27;;;;;;;;;;;;;;;14.06;100.00;95219.94;1040946;28;19952;-50
2021/08/06 02:11:58;;;;;;;;;;;;;;;14.09;100.00;95216.78;1037112;28;20007;-50
2021/08/06 02:12:28;;;;;;;;;;;;;;;14.11;100.00;95212.88;1041189;28;19909;-50
2021/08/06 02:12:58;;;;;;;;;;;;;;;14.07;100.00;95217.03;1041066;28;19913;-49
2021/08/06 02:13:29;;;;;;;;;;;;;;;14.03;100.00;95223.88;1041202;28;19913;-50
2021/08/06 02:13:59;;;;;;;;;;;;;;;14.04;100.00;95217.53;1041084;28;19913;-52
2021/08/06 02:14:29;;;;;;;;;;;;;;;14.05;100.00;95219.13;1036854;28;19915;-50
2021/08/06 02:14:59;;;;;;;;;;;;;;;14.04;100.00;95220.16;1037028;28;19924;-50
2021/08/06 02:15:30;;;;;;;;;;;;;;;14.01;100.00;95218.00;1036940;28;19967;-50
2021/08/06 02:16:00;;;;;;;;;;;;;;;14.00;100.00;95225.16;1033066;28;19929;-50
2021/08/06 02:16:30;;;;;;;;;;;;;;;13.98;100.00;95224.59;1032989;28;19902;-49
2021/08/06 02:17:01;;;;;;;;;;;;;;;13.97;100.00;95219.53;1032654;28;19936;-47
2021/08/06 02:17:31;;;;;;;;;;;;;;;13.95;100.00;95219.78;1032952;28;19917;-51
2021/08/06 02:18:01;;;;;;;;;;;;;;;13.94;100.00;95222.63;1029020;28;19949;-51
2021/08/06 02:18:32;;;;;;;;;;;;;;;13.93;100.00;95213.09;1025173;28;19903;-50
2021/08/06 02:19:02;;;;;;;;;;;;;;;13.92;100.00;95211.50;1024961;28;19913;-51
2021/08/06 02:19:32;;;;;;;;;;;;;;;13.90;100.00;95218.88;1029014;28;19910;-50
2021/08/06 02:20:03;;;;;;;;;;;;;;;13.88;100.00;95220.94;1028954;28;19960;-51
2021/08/06 02:20:33;;;;;;;;;;;;;;;13.84;100.00;95223.25;1033073;28;19964;-51
2021/08/06 02:21:10;;;;;;;;;;;;;;;13.84;100.00;95221.41;1033067;28;20390;-51
2021/08/06 02:21:41;;;;;;;;;;;;;;;13.85;100.00;95223.03;1033980;28;19981;-50
2021/08/06 02:22:11;;;;;;;;;;;;;;;13.84;100.00;95217.97;1036996;28;20393;-50
2021/08/06 02:22:42;;;;;;;;;;;;;;;13.83;100.00;95219.81;1028903;28;20001;-49
2021/08/06 02:23:12;;;;;;;;;;;;;;;13.81;100.00;95216.59;1029020;28;19964;-50
2021/08/06 02:23:48;;;;;;;;;;;;;;;13.81;100.00;95221.88;1029065;28;19921;-50
2021/08/06 02:24:18;;;;;;;;;;;;;;;13.77;100.00;95222.59;1030349;28;19914;-51
2021/08/06 02:24:48;;;;;;;;;;;;;;;13.79;100.00;95220.53;1032968;28;19914;-50
2021/08/06 02:25:19;;;;;;;;;;;;;;;13.77;100.00;95220.78;1033778;28;20001;-48
2021/08/06 02:25:50;;;;;;;;;;;;;;;13.73;100.00;95217.00;1037023;28;20004;-49
2021/08/06 02:26:20;;;;;;;;;;;;;;;13.75;100.00;95220.19;1037041;28;19909;-50
2021/08/06 02:26:51;;;;;;;;;;;;;;;13.74;100.00;95215.97;1032993;28;19913;-49
2021/08/06 02:27:21;;;;;;;;;;;;;;;13.75;100.00;95212.25;1029000;28;19993;-46
2021/08/06 02:27:51;;;;;;;;;;;;;;;13.73;100.00;95218.84;1022167;29;19919;-46
2021/08/06 02:28:22;;;;;;;;;;;;;;;13.72;100.00;95217.22;1025137;28;20402;-48
2021/08/06 02:28:52;;;;;;;;;;;;;;;13.73;100.00;95214.34;1029114;28;19969;-47
2021/08/06 02:29:22;;;;;;;;;;;;;;;13.75;100.00;95214.09;1033115;28;19936;-47
2021/08/06 02:29:53;;;;;;;;;;;;;;;13.74;100.00;95218.59;1037210;28;19917;-47
2021/08/06 02:30:23;;;;;;;;;;;;;;;13.74;100.00;95210.66;1037054;28;19914;-49
2021/08/06 02:30:54;;;;;;;;;;;;;;;13.73;100.00;95211.69;1037529;28;19913;-47
2021/08/06 02:31:24;;;;;;;;;;;;;;;13.72;100.00;95217.22;1033061;28;19914;-47
2021/08/06 02:31:55;;;;;;;;;;;;;;;13.71;100.00;95216.44;1033100;28;19925;-47
2021/08/06 02:32:25;;;;;;;;;;;;;;;13.72;100.00;95209.28;1029028;28;19910;-50
2021/08/06 02:32:56;;;;;;;;;;;;;;;13.71;100.00;95207.69;1029005;28;20012;-49
2021/08/06 02:33:26;;;;;;;;;;;;;;;13.69;100.00;95210.56;1028900;28;19918;-47
2021/08/06 02:33:56;;;;;;;;;;;;;;;13.67;100.00;95212.66;1028864;28;19915;-49
2021/08/06 02:34:27;;;;;;;;;;;;;;;13.66;100.00;95216.31;1028660;28;20359;-47
2021/08/06 02:34:57;;;;;;;;;;;;;;;13.65;100.00;95212.88;1029051;28;19936;-51
2021/08/06 02:35:28;;;;;;;;;;;;;;;13.64;100.00;95213.13;1033072;28;19914;-50
2021/08/06 02:35:58;;;;;;;;;;;;;;;13.63;100.00;95203.56;1033005;28;20051;-47
2021/08/06 02:36:28;;;;;;;;;;;;;;;13.60;100.00;95206.69;1032980;28;19910;-49
2021/08/06 02:36:59;;;;;;;;;;;;;;;13.60;100.00;95211.97;1037003;28;19921;-48
2021/08/06 02:37:30;;;;;;;;;;;;;;;13.59;100.00;95210.38;1036977;28;19913;-47
2021/08/06 02:38:00;;;;;;;;;;;;;;;13.59;100.00;95202.44;1037390;28;19920;-47
2021/08/06 02:38:31;;;;;;;;;;;;;;;13.59;100.00;95203.25;1039167;28;19916;-51
2021/08/06 02:39:01;;;;;;;;;;;;;;;13.57;100.00;95210.59;1041390;28;19920;-51
2021/08/06 02:39:32;;;;;;;;;;;;;;;13.60;100.00;95206.69;1041346;28;19913;-47
2021/08/06 02:40:03;;;;;;;;;;;;;;;13.65;100.00;95206.81;1036928;28;19914;-48
2021/08/06 02:40:33;;;;;;;;;;;;;;;13.73;100.00;95206.41;1036957;28;19920;-51
2021/08/06 02:41:03;;;;;;;;;;;;;;;13.71;100.00;95195.28;1037118;28;19947;-48
2021/08/06 02:41:34;;;;;;;;;;;;;;;13.72;100.00;95204.00;1037203;28;19921;-49
2021/08/06 02:42:04;;;;;;;;;;;;;;;13.70;100.00;95211.38;1041147;28;19917;-49